Time;durP1;ratioP1;P1;durP2;ratioP2;P2;SDS_P1;SDS_P2;PMS_P1;PMS_P2;Temp;Humidity;BMP_temperature;BMP_pressure;BME280_temperature;BME280_humidity;BME280_pressure;Samples;Min_cycle;Max_cycle;Signal;HPM_P1;HPM_P2
2022/05/13 00:00:44;;;;;;;9.13;4.97;;;12.50;99.90;;;;;;5035083;28;20221;-79
2022/05/13 00:03:09;;;;;;;16.67;5.33;;;12.60;99.90;;;;;;5035098;28;20625;-79
2022/05/13 00:05:35;;;;;;;10.10;5.00;;;12.60;99.90;;;;;;5035351;28;20219;-79
2022/05/13 00:08:01;;;;;;;8.67;4.67;;;12.40;99.90;;;;;;5035298;28;20174;-80
2022/05/13 00:10:27;;;;;;;9.63;4.57;;;12.30;99.90;;;;;;5035104;28;20684;-78
2022/05/13 00:12:53;;;;;;;5.57;3.87;;;12.30;99.90;;;;;;5034880;28;20177;-80
2022/05/13 00:15:21;;;;;;;6.00;3.80;;;12.60;99.90;;;;;;5035219;28;20295;-80
2022/05/13 00:17:47;;;;;;;5.70;3.60;;;12.60;99.90;;;;;;5034786;28;20320;-80
2022/05/13 00:20:14;;;;;;;6.97;3.53;;;12.50;99.90;;;;;;5035125;28;20189;-79
2022/05/13 00:22:50;;;;;;;9.27;3.33;;;12.60;99.90;;;;;;5036319;28;20636;-80
2022/05/13 00:25:18;;;;;;;6.73;3.47;;;12.50;99.90;;;;;;5039267;28;20166;-80
2022/05/13 00:27:44;;;;;;;7.33;3.23;;;12.50;99.90;;;;;;5038946;28;20228;-80
2022/05/13 00:30:10;;;;;;;7.13;3.13;;;12.50;99.90;;;;;;5038371;28;20198;-80
2022/05/13 00:32:36;;;;;;;6.73;3.00;;;12.40;99.90;;;;;;5038226;28;20183;-80
2022/05/13 00:35:03;;;;;;;9.23;2.87;;;12.50;99.90;;;;;;5038302;28;20267;-79
2022/05/13 00:37:29;;;;;;;4.27;2.90;;;12.40;99.50;;;;;;5038086;28;20277;-80
2022/05/13 00:39:55;;;;;;;5.33;2.60;;;12.50;99.40;;;;;;5038237;28;20229;-80
2022/05/13 00:42:22;;;;;;;6.70;2.63;;;12.40;99.30;;;;;;5037904;28;20172;-80
2022/05/13 00:44:48;;;;;;;5.23;2.60;;;12.30;99.20;;;;;;5037969;28;20173;-80
2022/05/13 00:47:14;;;;;;;8.33;2.50;;;12.20;99.00;;;;;;5038500;28;20200;-80
2022/05/13 00:49:40;;;;;;;4.63;2.40;;;12.20;99.00;;;;;;5037646;28;20639;-80
2022/05/13 00:52:08;;;;;;;6.87;2.63;;;12.20;99.20;;;;;;5037849;28;20173;-80
2022/05/13 00:54:35;;;;;;;7.13;2.90;;;12.10;99.30;;;;;;5037851;28;20204;-80
2022/05/13 00:57:01;;;;;;;4.73;2.63;;;12.20;99.50;;;;;;5038255;28;20173;-79
2022/05/13 00:59:32;;;;;;;3.67;2.43;;;12.20;99.50;;;;;;5037895;28;20166;-79
2022/05/13 01:01:58;;;;;;;5.70;2.97;;;12.10;99.90;;;;;;5038001;28;20166;-81
2022/05/13 01:04:25;;;;;;;11.13;3.00;;;12.10;99.70;;;;;;5055997;28;20308;-80
2022/05/13 01:06:54;;;;;;;8.90;2.83;;;12.00;99.90;;;;;;5038010;28;20268;-79
2022/05/13 01:09:21;;;;;;;7.07;2.50;;;11.90;99.90;;;;;;5038076;28;20185;-79
2022/05/13 01:11:49;;;;;;;3.00;2.67;;;11.80;99.90;;;;;;5037466;28;20199;-79
2022/05/13 01:14:23;;;;;;;5.70;2.70;;;11.70;99.90;;;;;;5037766;28;20194;-80
2022/05/13 01:19:33;;;;;;;8.37;3.10;;;11.80;99.90;;;;;;5055691;28;20175;-80
2022/05/13 01:22:12;;;;;;;4.63;3.20;;;11.70;99.90;;;;;;5037378;28;20169;-79
2022/05/13 01:24:37;;;;;;;6.80;3.70;;;11.70;99.90;;;;;;5037526;28;20577;-80
2022/05/13 01:27:03;;;;;;;5.63;3.57;;;11.90;99.90;;;;;;5037620;28;20186;-80
2022/05/13 01:29:29;;;;;;;6.10;4.20;;;11.90;99.90;;;;;;5037312;28;20180;-79
2022/05/13 01:31:55;;;;;;;7.00;4.33;;;11.90;99.90;;;;;;5037689;28;20219;-80
2022/05/13 01:34:21;;;;;;;12.23;4.73;;;11.90;99.90;;;;;;5036189;28;20203;-79
2022/05/13 01:36:46;;;;;;;6.67;4.13;;;11.90;99.90;;;;;;5037516;28;20171;-77
2022/05/13 01:39:12;;;;;;;8.87;4.77;;;12.00;99.90;;;;;;5037400;28;20238;-77
2022/05/13 01:41:37;;;;;;;6.47;4.33;;;12.00;99.90;;;;;;5037359;28;20201;-80
2022/05/13 01:44:04;;;;;;;9.97;4.53;;;11.90;99.90;;;;;;5037802;28;20224;-79
2022/05/13 01:46:29;;;;;;;9.43;4.83;;;11.90;99.90;;;;;;5037931;28;20181;-78
2022/05/13 01:48:55;;;;;;;10.17;4.60;;;12.00;99.90;;;;;;5037749;28;20180;-80
2022/05/13 01:51:22;;;;;;;15.37;5.10;;;11.90;99.90;;;;;;5036904;28;20203;-79
2022/05/13 01:53:48;;;;;;;10.07;5.07;;;11.70;99.90;;;;;;5036895;28;20186;-81
2022/05/13 01:56:14;;;;;;;8.30;4.90;;;11.80;99.90;;;;;;5037057;28;20580;-79
2022/05/13 01:58:40;;;;;;;8.80;5.10;;;11.80;99.90;;;;;;5036942;28;20181;-79
2022/05/13 02:01:07;;;;;;;8.77;5.27;;;11.80;99.90;;;;;;5036707;28;20213;-80
2022/05/13 02:03:45;;;;;;;8.20;5.53;;;11.70;99.90;;;;;;5036315;28;20175;-80
2022/05/13 02:06:15;;;;;;;7.47;4.83;;;11.60;99.90;;;;;;5036172;28;20173;-81
2022/05/13 02:08:41;;;;;;;10.77;5.30;;;11.60;99.90;;;;;;5036783;28;20179;-80
2022/05/13 02:11:08;;;;;;;11.80;5.13;;;11.60;99.90;;;;;;5036601;28;20191;-81
2022/05/13 02:13:33;;;;;;;9.40;4.90;;;11.50;99.90;;;;;;5036833;28;20583;-80
2022/05/13 02:16:00;;;;;;;9.47;4.77;;;11.60;99.90;;;;;;5036161;28;20302;-81
2022/05/13 02:18:26;;;;;;;11.93;5.00;;;11.50;99.90;;;;;;5036174;28;20522;-77
2022/05/13 02:20:51;;;;;;;12.77;5.57;;;11.50;99.90;;;;;;5036404;28;20191;-78
2022/05/13 02:23:21;;;;;;;7.00;5.10;;;11.50;99.90;;;;;;5036074;28;20169;-77
2022/05/13 02:25:48;;;;;;;10.30;4.80;;;11.40;99.90;;;;;;5036102;28;20185;-80
2022/05/13 02:28:14;;;;;;;8.97;5.23;;;11.40;99.90;;;;;;5036104;28;20384;-78
2022/05/13 02:30:40;;;;;;;5.97;5.20;;;11.50;99.90;;;;;;5036358;28;20266;-79
2022/05/13 02:33:06;;;;;;;10.50;5.17;;;11.40;99.90;;;;;;5036150;28;20185;-79
2022/05/13 02:35:33;;;;;;;11.47;5.27;;;11.30;99.90;;;;;;5036336;28;20227;-80
2022/05/13 02:37:58;;;;;;;7.17;5.00;;;11.10;99.90;;;;;;5035617;28;20195;-79
2022/05/13 02:41:11;;;;;;;9.00;4.53;;;11.20;99.90;;;;;;5036043;28;20613;-78
2022/05/13 02:43:12;;;;;;;8.27;5.00;;;11.30;99.90;;;;;;5053913;28;20172;-80
2022/05/13 02:45:38;;;;;;;6.90;4.83;;;11.10;99.90;;;;;;5035757;28;20200;-81
2022/05/13 02:48:04;;;;;;;8.27;4.90;;;11.10;99.90;;;;;;5036259;28;20170;-79
2022/05/13 02:50:30;;;;;;;11.50;5.23;;;11.00;99.90;;;;;;5035033;28;20696;-80
2022/05/13 02:52:55;;;;;;;9.30;4.83;;;11.00;99.90;;;;;;5035419;28;20184;-79
2022/05/13 02:55:21;;;;;;;6.53;4.53;;;10.90;99.90;;;;;;5035864;28;20206;-81
2022/05/13 02:57:47;;;;;;;6.07;3.80;;;10.80;99.90;;;;;;5035339;28;20575;-78
2022/05/13 03:00:14;;;;;;;8.97;4.50;;;10.90;99.90;;;;;;5035839;28;20194;-80
2022/05/13 03:02:39;;;;;;;12.40;4.63;;;10.90;99.90;;;;;;5035479;28;20197;-78
2022/05/13 03:05:06;;;;;;;4.57;3.97;;;11.00;99.90;;;;;;5036025;28;20176;-79
2022/05/13 03:07:31;;;;;;;7.07;4.10;;;11.00;99.90;;;;;;5035515;28;20179;-79
2022/05/13 03:09:57;;;;;;;13.00;4.10;;;10.90;99.90;;;;;;5035770;28;20207;-77
2022/05/13 03:12:23;;;;;;;7.27;3.93;;;10.90;99.90;;;;;;5035208;28;20219;-79
2022/05/13 03:14:48;;;;;;;11.63;3.90;;;10.90;99.90;;;;;;5035811;28;20288;-80
2022/05/13 03:17:14;;;;;;;6.87;4.00;;;11.00;99.90;;;;;;5035401;28;20184;-80
2022/05/13 03:19:40;;;;;;;6.20;3.87;;;10.90;99.90;;;;;;5035801;28;20183;-77
2022/05/13 03:22:07;;;;;;;9.87;4.00;;;10.70;99.90;;;;;;5035544;28;20709;-78
2022/05/13 03:24:33;;;;;;;6.03;3.77;;;10.90;99.90;;;;;;5035472;28;20268;-81
2022/05/13 03:27:00;;;;;;;8.80;3.70;;;10.70;99.90;;;;;;5036048;28;20206;-77
2022/05/13 03:29:25;;;;;;;8.83;3.80;;;10.80;99.90;;;;;;5035984;28;20176;-80
2022/05/13 03:31:51;;;;;;;8.57;3.97;;;10.70;99.90;;;;;;5035815;28;20174;-78
2022/05/13 03:34:17;;;;;;;5.77;3.87;;;10.70;99.90;;;;;;5035848;28;20214;-78
2022/05/13 03:39:13;;;;;;;5.57;3.50;;;10.80;99.90;;;;;;5048108;28;20209;-79
2022/05/13 03:41:38;;;;;;;12.40;4.03;;;10.60;99.90;;;;;;5052394;28;20662;-79
2022/05/13 03:44:04;;;;;;;10.63;3.53;;;10.70;99.90;;;;;;5053090;28;20189;-79
2022/05/13 03:46:30;;;;;;;6.70;3.10;;;10.70;99.90;;;;;;5053299;28;20176;-79
2022/05/13 03:48:55;;;;;;;7.57;3.33;;;10.70;99.90;;;;;;5035460;28;20174;-79
2022/05/13 03:51:22;;;;;;;9.50;3.37;;;10.60;99.90;;;;;;5042347;23;20235;-82
2022/05/13 03:53:47;;;;;;;10.63;3.57;;;10.70;99.90;;;;;;5035919;28;20182;-82
2022/05/13 03:56:13;;;;;;;9.10;3.27;;;10.70;99.90;;;;;;5035910;28;20544;-82
2022/05/13 03:58:39;;;;;;;6.60;3.40;;;10.70;99.90;;;;;;5040186;28;20174;-83
2022/05/13 04:01:05;;;;;;;6.40;3.10;;;10.80;99.90;;;;;;5039063;28;20191;-81
2022/05/13 04:03:30;;;;;;;8.37;3.20;;;10.80;99.90;;;;;;5038640;28;20174;-81
2022/05/13 04:08:56;;;;;;;8.77;3.40;;;10.80;99.90;;;;;;5058685;28;20193;-82
2022/05/13 04:11:23;;;;;;;6.13;3.13;;;10.70;99.90;;;;;;5039641;28;20193;-81
2022/05/13 04:16:33;;;;;;;6.37;2.87;;;10.90;99.90;;;;;;5058304;28;20212;-81
2022/05/13 04:18:58;;;;;;;5.20;2.80;;;10.90;99.90;;;;;;5040302;28;20167;-81
2022/05/13 04:21:29;;;;;;;9.07;2.93;;;10.90;99.90;;;;;;5039635;28;20195;-81
2022/05/13 04:23:58;;;;;;;10.80;2.80;;;10.70;99.90;;;;;;5040043;28;20615;-82
2022/05/13 04:26:24;;;;;;;9.53;2.43;;;10.80;99.90;;;;;;5039969;28;20244;-82
2022/05/13 04:28:51;;;;;;;11.37;2.67;;;10.90;99.90;;;;;;5039435;28;20199;-82
2022/05/13 04:31:20;;;;;;;6.80;2.60;;;10.90;99.90;;;;;;5037422;28;20559;-82
2022/05/13 04:33:47;;;;;;;3.80;2.33;;;10.90;99.90;;;;;;5037518;28;20306;-81
2022/05/13 04:36:13;;;;;;;9.53;2.67;;;11.00;99.90;;;;;;5037359;28;20179;-82
2022/05/13 04:38:39;;;;;;;7.23;2.77;;;11.10;99.90;;;;;;5055140;28;20265;-82
2022/05/13 04:43:51;;;;;;;6.13;2.40;;;11.20;99.90;;;;;;5057991;28;20202;-83
2022/05/13 04:46:17;;;;;;;7.77;2.90;;;11.20;99.90;;;;;;5039273;28;20182;-83
2022/05/13 04:48:44;;;;;;;9.57;3.03;;;11.20;99.90;;;;;;5038809;28;20603;-83
2022/05/13 04:51:10;;;;;;;9.57;2.60;;;11.20;99.90;;;;;;5037886;28;20223;-82
2022/05/13 04:53:38;;;;;;;5.37;2.70;;;11.20;99.90;;;;;;5038255;28;20187;-82
2022/05/13 04:56:06;;;;;;;6.30;2.40;;;11.20;99.90;;;;;;5038263;28;20207;-83
2022/05/13 04:58:32;;;;;;;10.90;2.47;;;11.20;99.90;;;;;;5038089;28;20254;-82
2022/05/13 05:00:59;;;;;;;7.53;2.90;;;11.30;99.90;;;;;;5038157;28;20249;-82
2022/05/13 05:03:28;;;;;;;9.87;2.83;;;11.30;99.90;;;;;;5038462;28;20181;-84
2022/05/13 05:05:54;;;;;;;8.97;3.13;;;11.40;99.90;;;;;;5038359;28;20618;-82
2022/05/13 05:08:20;;;;;;;5.63;2.40;;;11.50;99.90;;;;;;5038777;28;20641;-82
2022/05/13 05:10:46;;;;;;;5.80;2.57;;;11.60;99.90;;;;;;5038453;28;20207;-83
2022/05/13 05:13:21;;;;;;;7.30;2.50;;;11.50;99.90;;;;;;5038369;28;20705;-83
2022/05/13 05:15:47;;;;;;;6.00;2.40;;;11.40;99.90;;;;;;5038178;28;20217;-82
2022/05/13 05:18:13;;;;;;;8.83;2.73;;;11.40;99.90;;;;;;5038446;28;20179;-82
2022/05/13 05:20:40;;;;;;;11.87;2.97;;;11.60;99.90;;;;;;5056154;28;20194;-83
2022/05/13 05:23:05;;;;;;;8.80;2.97;;;11.50;99.90;;;;;;5038104;28;20176;-82
2022/05/13 05:25:31;;;;;;;10.27;3.07;;;11.50;99.90;;;;;;5037995;28;20182;-83
2022/05/13 05:27:57;;;;;;;10.03;2.97;;;11.60;99.90;;;;;;5038368;28;20179;-82
2022/05/13 05:30:24;;;;;;;11.97;2.90;;;11.50;99.90;;;;;;5038045;28;20200;-81
2022/05/13 05:32:50;;;;;;;10.43;3.37;;;11.60;99.90;;;;;;5038927;28;20189;-83
2022/05/13 05:35:19;;;;;;;9.67;3.17;;;11.50;99.90;;;;;;5038028;28;20295;-83
2022/05/13 05:37:46;;;;;;;6.87;2.80;;;11.60;99.90;;;;;;5038761;28;20190;-83
2022/05/13 05:40:12;;;;;;;8.20;3.00;;;11.70;99.90;;;;;;5038259;28;20193;-82
2022/05/13 05:42:39;;;;;;;6.63;3.20;;;11.70;99.90;;;;;;5036890;28;20176;-82
2022/05/13 05:45:07;;;;;;;6.67;3.33;;;11.80;99.90;;;;;;5036656;28;20179;-82
2022/05/13 05:47:33;;;;;;;11.47;3.80;;;11.80;99.90;;;;;;5036843;28;20184;-83
2022/05/13 05:49:59;;;;;;;8.93;3.70;;;11.80;99.90;;;;;;5036742;28;20205;-83
2022/05/13 05:52:25;;;;;;;12.47;4.03;;;11.70;99.90;;;;;;5036321;28;20225;-83
2022/05/13 05:57:35;;;;;;;11.80;3.30;;;11.60;99.90;;;;;;5054941;28;20659;-82
2022/05/13 06:00:04;;;;;;;13.63;3.97;;;11.70;99.90;;;;;;5036204;28;20195;-83
2022/05/13 06:02:30;;;;;;;9.73;3.40;;;11.80;99.90;;;;;;5036169;28;20184;-82
2022/05/13 06:04:55;;;;;;;8.97;3.90;;;11.80;99.90;;;;;;5036330;28;20667;-82
2022/05/13 06:07:21;;;;;;;14.30;4.10;;;11.80;99.90;;;;;;5036076;28;20195;-82
2022/05/13 06:09:46;;;;;;;7.40;3.57;;;11.80;99.90;;;;;;5036288;28;20202;-84
2022/05/13 06:12:13;;;;;;;12.50;4.43;;;11.80;99.90;;;;;;5036211;28;20562;-82
2022/05/13 06:14:39;;;;;;;13.83;4.33;;;11.80;99.90;;;;;;5036070;28;20202;-81
2022/05/13 06:17:05;;;;;;;15.63;4.00;;;11.80;99.90;;;;;;5036290;28;20175;-81
2022/05/13 06:19:31;;;;;;;13.70;4.33;;;11.80;99.90;;;;;;5035676;28;20183;-82
2022/05/13 06:21:59;;;;;;;12.43;4.33;;;11.80;99.90;;;;;;5036267;28;20208;-82
2022/05/13 06:24:24;;;;;;;11.47;4.90;;;11.80;99.90;;;;;;5035916;28;20187;-83
2022/05/13 06:26:51;;;;;;;14.93;4.43;;;11.90;99.90;;;;;;5036020;28;20183;-81
2022/05/13 06:29:18;;;;;;;11.17;4.60;;;11.90;99.90;;;;;;5036036;28;20181;-82
2022/05/13 06:31:45;;;;;;;16.13;4.60;;;12.00;99.90;;;;;;5036014;28;20205;-83
2022/05/13 06:34:11;;;;;;;19.40;5.13;;;12.10;99.90;;;;;;5036439;28;20200;-82
2022/05/13 06:36:37;;;;;;;16.20;4.97;;;12.20;99.90;;;;;;5035778;28;20180;-83
2022/05/13 06:39:04;;;;;;;17.97;5.00;;;12.40;99.90;;;;;;5035876;28;20184;-82
2022/05/13 06:41:31;;;;;;;15.50;4.30;;;12.60;99.90;;;;;;5035724;28;20700;-82
2022/05/13 06:43:57;;;;;;;13.00;4.67;;;12.60;99.90;;;;;;5035837;28;20167;-82
2022/05/13 06:46:22;;;;;;;13.87;4.30;;;12.60;99.90;;;;;;5034589;28;20652;-82
2022/05/13 06:48:48;;;;;;;16.43;4.60;;;12.90;99.90;;;;;;5036114;28;20244;-83
2022/05/13 06:51:15;;;;;;;15.77;5.23;;;13.00;99.90;;;;;;5037016;28;20538;-81
2022/05/13 06:53:42;;;;;;;12.40;4.17;;;13.10;99.90;;;;;;5037391;28;20174;-82
2022/05/13 06:56:08;;;;;;;16.03;4.57;;;13.30;99.90;;;;;;5037746;28;20224;-82
2022/05/13 06:58:35;;;;;;;12.80;4.03;;;13.50;99.90;;;;;;5036925;28;20180;-82
2022/05/13 07:01:01;;;;;;;14.13;4.80;;;13.50;99.90;;;;;;5037109;28;20199;-83
2022/05/13 07:03:26;;;;;;;10.53;4.20;;;13.10;99.90;;;;;;5037308;28;20629;-82
2022/05/13 07:05:52;;;;;;;8.53;4.10;;;13.50;99.90;;;;;;5037647;28;20179;-83
2022/05/13 07:08:18;;;;;;;13.27;4.07;;;14.40;99.90;;;;;;5038096;28;20612;-83
2022/05/13 07:10:44;;;;;;;9.70;3.13;;;15.30;99.90;;;;;;5037959;28;20208;-83
2022/05/13 07:13:12;;;;;;;10.57;3.53;;;15.80;99.90;;;;;;5038118;28;20324;-83
2022/05/13 07:15:38;;;;;;;15.10;3.90;;;16.00;99.70;;;;;;5037951;28;20299;-83
2022/05/13 07:18:04;;;;;;;13.63;3.53;;;15.90;99.90;;;;;;5038279;28;20204;-83
2022/05/13 07:20:30;;;;;;;8.40;3.57;;;16.70;98.50;;;;;;5038105;28;20287;-83
2022/05/13 07:22:56;;;;;;;14.23;3.53;;;16.60;98.70;;;;;;5037896;28;20205;-83
2022/05/13 07:25:22;;;;;;;20.27;4.10;;;16.40;99.30;;;;;;5038024;28;20602;-83
2022/05/13 07:27:48;;;;;;;16.13;4.07;;;16.90;99.00;;;;;;5038050;28;20181;-83
2022/05/13 07:30:14;;;;;;;9.53;3.50;;;16.80;98.30;;;;;;5040186;28;20193;-83
2022/05/13 07:32:40;;;;;;;11.73;3.93;;;17.40;97.90;;;;;;5037476;28;20562;-82
2022/05/13 07:35:06;;;;;;;14.07;3.77;;;17.30;97.90;;;;;;5038019;28;20197;-82
2022/05/13 07:37:32;;;;;;;8.63;3.83;;;18.00;96.70;;;;;;5038495;28;20188;-84
2022/05/13 07:42:42;;;;;;;11.25;3.70;;;18.20;96.10;;;;;;5056982;28;20222;-84
2022/05/13 07:45:09;;;;;;;14.32;4.20;;;18.10;95.20;;;;;;5039172;28;20674;-84
2022/05/13 07:47:35;;;;;;;13.55;3.80;;;17.70;95.30;;;;;;5036139;28;20264;-84
2022/05/13 07:50:02;;;;;;;7.43;3.25;;;18.00;95.20;;;;;;5036696;28;20197;-83
2022/05/13 07:52:28;;;;;;;11.40;3.55;;;17.90;94.80;;;;;;5037010;28;20657;-83
2022/05/13 07:54:54;;;;;;;11.30;3.55;;;18.10;95.70;;;;;;5036249;28;20247;-84
2022/05/13 07:57:20;;;;;;;15.73;3.00;;;17.70;95.20;;;;;;5038038;28;20646;-84
2022/05/13 08:02:29;;;;;;;12.40;3.47;;;18.70;95.50;;;;;;5054769;28;20188;-84
2022/05/13 08:04:55;;;;;;;9.23;3.10;;;18.30;94.20;;;;;;5035341;28;20173;-82
2022/05/13 08:07:21;;;;;;;9.90;3.55;;;18.70;93.10;;;;;;5034834;28;20736;-83
2022/05/13 08:09:46;;;;;;;10.98;3.47;;;19.10;93.30;;;;;;5034924;28;20569;-83
2022/05/13 08:12:12;;;;;;;9.90;3.22;;;18.70;94.20;;;;;;5034719;28;20173;-83
2022/05/13 08:14:38;;;;;;;10.65;3.20;;;18.30;92.60;;;;;;5034390;28;20284;-83
2022/05/13 08:17:04;;;;;;;10.88;3.08;;;17.80;93.60;;;;;;5052566;28;20184;-83
2022/05/13 08:19:30;;;;;;;7.20;2.80;;;17.50;93.70;;;;;;5034968;28;20174;-84
2022/05/13 08:21:55;;;;;;;10.00;3.53;;;17.30;94.20;;;;;;5035058;28;20200;-83
2022/05/13 08:24:21;;;;;;;9.33;3.57;;;17.40;94.50;;;;;;5034670;28;20491;-83
2022/05/13 08:26:47;;;;;;;14.23;3.40;;;17.10;95.70;;;;;;5034781;28;20169;-84
2022/05/13 08:29:12;;;;;;;8.07;3.13;;;17.10;94.70;;;;;;5034518;28;20216;-83
2022/05/13 08:31:38;;;;;;;12.30;3.43;;;17.10;95.30;;;;;;5033833;28;20193;-83
2022/05/13 08:34:04;;;;;;;12.10;3.93;;;17.40;95.50;;;;;;5034212;28;20464;-83
2022/05/13 08:36:29;;;;;;;11.47;3.53;;;17.20;95.60;;;;;;5051734;28;20178;-83
2022/05/13 08:38:55;;;;;;;9.00;3.33;;;17.30;95.70;;;;;;5033961;28;20696;-83
2022/05/13 08:41:38;;;;;;;10.53;3.33;;;17.20;95.50;;;;;;5033852;28;20198;-83
2022/05/13 08:44:07;;;;;;;8.37;3.53;;;16.90;95.80;;;;;;5036424;28;20182;-84
2022/05/13 08:46:35;;;;;;;8.63;3.80;;;17.30;95.30;;;;;;5037603;28;20177;-84
2022/05/13 08:49:12;;;;;;;10.83;3.70;;;17.30;95.10;;;;;;5037952;28;20546;-84
2022/05/13 08:51:41;;;;;;;8.57;3.30;;;17.30;95.20;;;;;;5039222;28;20208;-83
2022/05/13 08:54:20;;;;;;;13.33;3.33;;;17.10;95.00;;;;;;5040192;28;20246;-84
2022/05/13 08:56:52;;;;;;;8.03;2.97;;;17.40;95.70;;;;;;5039144;28;20199;-83
2022/05/13 08:59:19;;;;;;;8.47;3.03;;;17.20;94.80;;;;;;5039033;28;20175;-84
2022/05/13 09:01:49;;;;;;;10.83;3.70;;;17.20;94.70;;;;;;5037327;28;20190;-83
2022/05/13 09:04:36;;;;;;;11.43;3.40;;;17.30;94.50;;;;;;5037788;28;20177;-83
2022/05/13 09:07:16;;;;;;;8.93;3.13;;;17.50;94.50;;;;;;5037388;28;20173;-84
2022/05/13 09:09:43;;;;;;;10.27;3.47;;;17.40;94.70;;;;;;5037862;28;20178;-84
2022/05/13 09:12:30;;;;;;;10.13;2.97;;;17.40;94.80;;;;;;5039989;28;20173;-83
2022/05/13 09:15:04;;;;;;;6.90;3.03;;;17.80;94.60;;;;;;5037978;28;20220;-84
2022/05/13 09:18:00;;;;;;;9.17;3.10;;;17.60;93.70;;;;;;5038657;28;20180;-84
2022/05/13 09:20:26;;;;;;;8.23;3.00;;;17.70;94.00;;;;;;5037974;28;20193;-84
2022/05/13 09:23:01;;;;;;;10.17;3.20;;;17.90;93.00;;;;;;5039186;28;20537;-84
2022/05/13 09:26:15;;;;;;;7.27;2.40;;;18.30;93.50;;;;;;5038864;28;20192;-83
2022/05/13 09:29:03;;;;;;;7.10;2.53;;;18.30;93.90;;;;;;5012065;28;20185;-84
2022/05/13 09:31:31;;;;;;;11.03;2.60;;;19.30;92.90;;;;;;5037751;28;20189;-84
2022/05/13 09:33:57;;;;;;;9.30;2.95;;;19.20;91.00;;;;;;5038423;28;20586;-83
2022/05/13 09:36:22;;;;;;;11.32;3.28;;;19.50;90.80;;;;;;5038423;28;20208;-84
2022/05/13 09:38:52;;;;;;;7.32;2.45;;;18.80;90.90;;;;;;5046470;23;20217;-83
2022/05/13 09:41:33;;;;;;;10.13;3.03;;;18.60;91.30;;;;;;5038082;28;20192;-83
2022/05/13 09:44:11;;;;;;;7.93;2.47;;;18.50;92.40;;;;;;5037869;28;20652;-83
2022/05/13 09:46:43;;;;;;;7.55;2.95;;;18.90;92.00;;;;;;5038102;28;20223;-83
2022/05/13 09:49:29;;;;;;;11.10;3.20;;;19.50;89.90;;;;;;5038158;28;20223;-83
2022/05/13 09:52:00;;;;;;;10.65;3.30;;;19.40;90.90;;;;;;5038269;28;20185;-83
2022/05/13 09:54:33;;;;;;;11.93;3.72;;;19.20;89.70;;;;;;5037079;28;20224;-83
2022/05/13 09:57:11;;;;;;;13.55;3.17;;;19.20;90.30;;;;;;5038942;28;20173;-84
2022/05/13 09:59:46;;;;;;;11.13;3.25;;;18.80;90.20;;;;;;5037409;28;20184;-83
2022/05/13 10:02:35;;;;;;;8.25;3.17;;;18.80;90.50;;;;;;5037701;28;20200;-83
2022/05/13 10:05:25;;;;;;;7.45;3.30;;;18.70;90.80;;;;;;5038733;28;20207;-83
2022/05/13 10:07:51;;;;;;;9.75;3.40;;;18.30;91.50;;;;;;5039008;28;20549;-83
2022/05/13 10:15:57;;;;;;;10.40;3.40;;;19.40;91.80;;;;;;5053795;28;20247;-83
2022/05/13 10:18:34;;;;;;;10.35;3.13;;;19.00;90.20;;;;;;5035806;28;20170;-83
2022/05/13 10:21:27;;;;;;;8.33;3.33;;;18.50;90.70;;;;;;5037129;28;20197;-83
2022/05/13 10:24:04;;;;;;;9.23;3.73;;;18.00;92.20;;;;;;5053646;28;20165;-83
2022/05/13 10:26:35;;;;;;;6.13;3.77;;;17.50;92.10;;;;;;5035795;28;20184;-84
2022/05/13 10:29:14;;;;;;;7.40;3.40;;;17.30;92.00;;;;;;5035826;28;20549;-83
2022/05/13 10:31:43;;;;;;;9.57;3.40;;;16.90;93.00;;;;;;5035291;28;20703;-83
2022/05/13 10:34:27;;;;;;;10.10;4.33;;;17.10;93.20;;;;;;5035550;28;20649;-82
2022/05/13 10:36:58;;;;;;;11.47;3.70;;;17.20;93.20;;;;;;5035499;28;20180;-84
2022/05/13 10:39:49;;;;;;;13.87;4.20;;;17.60;92.70;;;;;;5035200;28;20192;-84
2022/05/13 10:42:20;;;;;;;11.40;3.83;;;17.30;92.60;;;;;;5035213;28;20593;-82
2022/05/13 10:44:58;;;;;;;10.73;4.50;;;17.40;93.10;;;;;;5034995;28;20177;-84
2022/05/13 10:48:14;;;;;;;16.47;3.77;;;17.50;92.90;;;;;;5034035;28;20257;-84
2022/05/13 10:50:51;;;;;;;11.83;3.80;;;18.30;92.20;;;;;;5022453;28;20205;-83
2022/05/13 10:53:19;;;;;;;7.40;3.63;;;19.70;90.50;;;;;;5058128;28;20196;-83
2022/05/13 10:56:11;;;;;;;11.57;3.60;;;19.10;90.70;;;;;;5039682;28;20218;-83
2022/05/13 10:58:40;;;;;;;9.37;3.43;;;18.40;91.20;;;;;;5039317;28;20245;-82
2022/05/13 11:01:21;;;;;;;8.20;3.80;;;17.80;91.40;;;;;;5039421;28;20581;-83
2022/05/13 11:04:06;;;;;;;11.70;3.70;;;17.80;91.80;;;;;;5040232;28;20538;-83
2022/05/13 11:06:42;;;;;;;8.07;3.73;;;17.70;91.80;;;;;;5038987;28;20185;-82
2022/05/13 11:09:07;;;;;;;9.00;4.00;;;17.50;92.10;;;;;;5034543;28;20208;-82
2022/05/13 11:11:45;;;;;;;6.97;3.37;;;18.10;91.50;;;;;;5034257;28;20225;-83
2022/05/13 11:14:35;;;;;;;10.13;3.87;;;18.10;92.10;;;;;;5034509;28;20863;-82
2022/05/13 11:17:37;;;;;;;8.60;3.83;;;18.20;91.50;;;;;;5034310;28;20308;-83
2022/05/13 11:20:21;;;;;;;9.87;3.50;;;18.00;91.60;;;;;;5030159;28;20200;-83
2022/05/13 11:23:08;;;;;;;9.17;3.77;;;17.90;92.10;;;;;;5033443;28;20648;-83
2022/05/13 11:26:06;;;;;;;11.27;3.47;;;18.00;91.50;;;;;;5034901;28;20606;-82
2022/05/13 11:28:37;;;;;;;9.63;3.37;;;18.30;90.90;;;;;;5029079;28;20260;-83
2022/05/13 11:31:09;;;;;;;12.13;4.60;;;19.20;90.70;;;;;;5034542;28;20224;-83
2022/05/13 11:33:52;;;;;;;8.30;3.83;;;18.70;90.90;;;;;;5034747;28;20531;-83
2022/05/13 11:36:35;;;;;;;8.63;4.00;;;19.00;90.60;;;;;;5035049;28;20205;-82
2022/05/13 11:39:00;;;;;;;7.43;3.93;;;19.30;91.00;;;;;;5038057;28;20189;-82
2022/05/13 11:41:40;;;;;;;9.02;3.95;;;20.10;90.70;;;;;;5037224;28;20711;-82
2022/05/13 11:44:08;;;;;;;9.07;3.07;;;20.10;90.20;;;;;;5037017;28;20648;-82
2022/05/13 11:46:49;;;;;;;9.73;3.38;;;19.30;88.40;;;;;;5035364;28;20173;-81
2022/05/13 11:49:25;;;;;;;5.20;3.03;;;19.00;88.40;;;;;;5036387;28;20177;-83
2022/05/13 11:51:52;;;;;;;5.85;3.20;;;18.80;90.00;;;;;;5034271;28;20649;-83
2022/05/13 11:54:23;;;;;;;7.27;3.50;;;18.60;90.10;;;;;;5034572;28;20200;-84
2022/05/13 11:56:50;;;;;;;7.73;3.43;;;18.20;91.10;;;;;;5034338;28;20203;-83
2022/05/13 11:59:31;;;;;;;6.57;3.50;;;18.20;91.60;;;;;;5034519;28;20642;-84
2022/05/13 12:02:08;;;;;;;8.17;3.47;;;18.90;91.40;;;;;;5034556;28;20204;-84
2022/05/13 12:04:37;;;;;;;5.60;3.28;;;19.50;91.20;;;;;;5036157;28;20192;-82
2022/05/13 12:07:30;;;;;;;4.80;3.17;;;20.30;91.00;;;;;;5036109;28;20173;-84
2022/05/13 12:09:59;;;;;;;13.13;3.50;;;19.90;88.50;;;;;;5025721;28;20220;-84
2022/05/13 12:12:29;;;;;;;8.18;2.90;;;20.30;90.50;;;;;;5035829;28;20178;-84
2022/05/13 12:15:09;;;;;;;5.18;2.70;;;20.30;86.60;;;;;;5034332;28;20740;-83
2022/05/13 12:17:47;;;;;;;7.10;2.70;;;20.00;86.60;;;;;;5035022;28;20215;-84
2022/05/13 12:20:35;;;;;;;7.35;3.22;;;19.50;89.00;;;;;;5038939;28;20196;-83
2022/05/13 12:23:03;;;;;;;7.25;3.13;;;19.30;89.80;;;;;;5039734;28;20169;-83
2022/05/13 12:25:33;;;;;;;7.50;3.25;;;19.00;89.70;;;;;;5037669;28;20524;-83
2022/05/13 12:28:05;;;;;;;8.25;3.25;;;18.80;90.10;;;;;;5038080;28;20177;-82
2022/05/13 12:30:34;;;;;;;8.57;3.38;;;19.20;90.10;;;;;;5039761;28;20189;-83
2022/05/13 12:33:23;;;;;;;6.55;2.65;;;19.90;88.70;;;;;;5042461;28;20680;-83
2022/05/13 12:39:09;;;;;;;7.97;2.40;;;20.00;86.70;;;;;;5058548;28;20230;-82
2022/05/13 12:41:41;;;;;;;6.70;2.55;;;19.50;87.10;;;;;;5039321;28;20189;-82
2022/05/13 12:44:34;;;;;;;9.52;2.83;;;19.60;87.20;;;;;;5038830;28;20211;-82
2022/05/13 12:47:15;;;;;;;5.22;2.35;;;20.00;87.30;;;;;;5038953;28;20197;-83
2022/05/13 12:49:52;;;;;;;8.25;2.75;;;19.80;87.80;;;;;;5038863;28;20668;-83
2022/05/13 12:52:27;;;;;;;7.47;3.08;;;19.60;89.10;;;;;;5038482;28;20179;-81
2022/05/13 12:55:05;;;;;;;8.23;2.97;;;19.60;88.30;;;;;;5022062;28;20716;-82
2022/05/13 12:57:42;;;;;;;5.00;2.30;;;19.70;89.00;;;;;;5038581;28;20551;-82
2022/05/13 13:00:16;;;;;;;5.30;3.10;;;19.50;87.20;;;;;;5038048;28;20658;-82
2022/05/13 13:02:43;;;;;;;10.40;2.70;;;19.30;87.60;;;;;;5038433;28;20173;-83
2022/05/13 13:05:17;;;;;;;8.60;2.37;;;19.10;88.50;;;;;;5039656;28;20188;-82
2022/05/13 13:07:43;;;;;;;7.53;2.00;;;19.20;87.00;;;;;;5041056;28;20177;-82
2022/05/13 13:10:10;;;;;;;6.23;2.83;;;19.40;88.50;;;;;;5040858;28;20197;-83
2022/05/13 13:12:49;;;;;;;5.20;2.47;;;19.70;87.40;;;;;;5039219;28;20226;-82
2022/05/13 13:15:18;;;;;;;7.65;2.58;;;20.00;88.00;;;;;;5038928;28;20204;-82
2022/05/13 13:18:00;;;;;;;7.43;3.20;;;19.80;88.80;;;;;;5038007;28;20166;-82
2022/05/13 13:20:28;;;;;;;9.30;2.88;;;19.70;86.90;;;;;;5038199;28;20220;-82
2022/05/13 13:23:03;;;;;;;5.07;2.42;;;19.90;86.70;;;;;;5039062;28;20200;-82
2022/05/13 13:25:31;;;;;;;4.97;2.72;;;19.80;85.00;;;;;;5036743;28;20192;-83
2022/05/13 13:28:22;;;;;;;13.20;2.90;;;19.60;87.50;;;;;;5036861;28;20182;-83